createdAt,value
2017-07-11T00:01:50.851Z,17.33
2017-07-11T00:04:17.537Z,16.83
2017-07-11T00:06:44.225Z,15.85
2017-07-11T00:09:10.900Z,15.23
2017-07-11T00:11:37.577Z,17.30
2017-07-11T00:14:04.258Z,17.10
2017-07-11T00:16:30.947Z,17.00
2017-07-11T00:18:57.618Z,15.93
2017-07-11T00:21:24.319Z,17.00
2017-07-11T00:23:50.989Z,16.20
2017-07-11T00:26:17.691Z,17.67
2017-07-11T00:28:44.369Z,16.98
2017-07-11T00:31:11.072Z,15.85
2017-07-11T00:33:37.756Z,15.60
2017-07-11T00:36:04.456Z,15.70
2017-07-11T00:38:31.137Z,16.77
2017-07-11T00:40:57.840Z,19.40
2017-07-11T00:43:24.509Z,18.35
2017-07-11T00:45:51.207Z,20.35
2017-07-11T00:48:17.881Z,18.15
2017-07-11T00:50:44.584Z,17.65
2017-07-11T00:53:11.256Z,21.60
2017-07-11T00:55:37.961Z,20.23
2017-07-11T00:58:04.632Z,21.33
2017-07-11T01:00:31.305Z,23.90
2017-07-11T01:02:57.974Z,23.50
2017-07-11T01:05:24.649Z,25.12
2017-07-11T01:07:51.320Z,23.83
2017-07-11T01:10:18.000Z,24.08
2017-07-11T01:12:44.679Z,24.90
2017-07-11T01:15:11.360Z,25.50
2017-07-11T01:17:38.056Z,24.05
2017-07-11T01:20:05.044Z,25.92
2017-07-11T01:22:31.744Z,22.95
2017-07-11T01:24:58.437Z,24.55
2017-07-11T01:27:25.140Z,24.90
2017-07-11T01:29:51.813Z,23.90
2017-07-11T01:32:18.513Z,22.70
2017-07-11T01:34:45.202Z,24.55
2017-07-11T01:37:11.901Z,23.70
2017-07-11T01:39:38.586Z,22.90
2017-07-11T01:42:05.284Z,26.92
2017-07-11T01:44:31.964Z,25.42
2017-07-11T01:46:58.665Z,25.77
2017-07-11T01:49:25.340Z,28.12
2017-07-11T01:51:52.040Z,30.17
2017-07-11T01:54:18.744Z,26.90
2017-07-11T01:56:45.444Z,29.20
2017-07-11T01:59:12.132Z,26.10
2017-07-11T02:01:38.861Z,32.95
2017-07-11T02:04:05.641Z,34.47
2017-07-11T02:06:32.345Z,32.78
2017-07-11T02:08:59.028Z,35.15
2017-07-11T02:11:25.730Z,32.28
2017-07-11T02:13:52.401Z,34.90
2017-07-11T02:16:19.086Z,42.45
2017-07-11T02:18:45.760Z,38.15
2017-07-11T02:21:12.441Z,37.78
2017-07-11T02:23:39.172Z,40.63
2017-07-11T02:26:05.976Z,38.75
2017-07-11T02:28:32.651Z,40.65
2017-07-11T02:30:59.324Z,37.25
2017-07-11T02:33:25.995Z,37.63
2017-07-11T02:35:52.670Z,37.70
2017-07-11T02:38:19.348Z,38.25
2017-07-11T02:40:46.028Z,36.05
2017-07-11T02:43:12.729Z,34.00
2017-07-11T02:45:39.397Z,35.30
2017-07-11T02:48:06.096Z,36.33
2017-07-11T02:50:32.768Z,38.88
2017-07-11T02:52:59.468Z,38.50
2017-07-11T02:55:26.141Z,38.45
2017-07-11T02:57:52.845Z,36.47
2017-07-11T03:00:19.520Z,41.17
2017-07-11T03:02:46.230Z,39.67
2017-07-11T03:05:12.921Z,41.55
2017-07-11T03:07:39.625Z,42.97
2017-07-11T03:10:06.303Z,41.05
2017-07-11T03:12:33.008Z,41.45
2017-07-11T03:14:59.681Z,40.63
2017-07-11T03:17:26.384Z,44.92
2017-07-11T03:19:53.068Z,40.92
2017-07-11T03:22:19.768Z,46.10
2017-07-11T03:24:46.440Z,51.85
2017-07-11T03:27:13.144Z,46.83
2017-07-11T03:29:39.828Z,47.58
2017-07-11T03:32:06.505Z,49.47
2017-07-11T03:34:33.183Z,44.90
2017-07-11T03:36:59.868Z,62.58
2017-07-11T03:39:26.541Z,52.58
2017-07-11T03:41:53.228Z,59.78
2017-07-11T03:44:19.909Z,60.75
2017-07-11T03:46:46.593Z,60.40
2017-07-11T03:49:13.268Z,63.20
2017-07-11T03:51:39.945Z,62.92
2017-07-11T03:54:06.645Z,65.85
2017-07-11T03:56:33.319Z,66.20
2017-07-11T03:58:59.997Z,60.20
2017-07-11T04:01:26.673Z,75.20
2017-07-11T04:03:53.409Z,64.18
2017-07-11T04:06:20.070Z,65.95
2017-07-11T04:08:46.750Z,72.80
2017-07-11T04:11:13.428Z,68.28
2017-07-11T04:13:40.133Z,72.07
2017-07-11T04:16:06.816Z,67.93
2017-07-11T04:18:33.515Z,67.18
2017-07-11T04:21:00.194Z,71.53
2017-07-11T04:23:26.900Z,73.40
2017-07-11T04:25:53.581Z,65.40
2017-07-11T04:28:20.285Z,69.90
2017-07-11T04:30:46.957Z,69.03
2017-07-11T04:33:13.656Z,65.95
2017-07-11T04:35:40.343Z,65.90
2017-07-11T04:38:07.048Z,61.75
2017-07-11T04:40:33.732Z,57.55
2017-07-11T04:43:00.403Z,59.42
2017-07-11T04:45:27.076Z,54.47
2017-07-11T04:47:53.749Z,49.65
2017-07-11T04:50:20.424Z,51.08
2017-07-11T04:52:47.101Z,46.47
2017-07-11T04:55:13.773Z,45.78
2017-07-11T04:57:40.450Z,42.35
2017-07-11T05:00:07.124Z,42.03
2017-07-11T05:02:33.800Z,39.95
2017-07-11T05:05:00.479Z,40.72
2017-07-11T05:07:27.164Z,38.22
2017-07-11T05:09:53.842Z,40.63
2017-07-11T05:12:20.547Z,39.85
2017-07-11T05:14:47.225Z,39.00
2017-07-11T05:17:13.925Z,40.60
2017-07-11T05:19:40.604Z,34.97
2017-07-11T05:22:07.290Z,37.10
2017-07-11T05:24:33.964Z,37.08
2017-07-11T05:27:00.643Z,34.75
2017-07-11T05:29:27.327Z,36.83
2017-07-11T05:31:54.005Z,36.35
2017-07-11T05:34:20.707Z,37.08
2017-07-11T05:36:47.380Z,38.83
2017-07-11T05:39:14.085Z,33.53
2017-07-11T05:41:40.768Z,37.08
2017-07-11T05:44:07.481Z,40.03
2017-07-11T05:46:34.160Z,43.03
2017-07-11T05:49:00.833Z,33.42
2017-07-11T05:51:27.517Z,33.83
2017-07-11T05:53:54.197Z,33.53
2017-07-11T05:56:20.882Z,36.13
2017-07-11T05:58:47.561Z,32.03
2017-07-11T06:01:14.246Z,29.80
2017-07-11T06:03:40.939Z,29.87
2017-07-11T06:06:07.612Z,29.50
2017-07-11T06:08:34.291Z,29.73
2017-07-11T06:11:00.973Z,29.37
2017-07-11T06:13:27.656Z,28.47
2017-07-11T06:15:54.329Z,29.40
2017-07-11T06:18:21.012Z,30.23
2017-07-11T06:20:47.680Z,30.60
2017-07-11T06:23:14.360Z,28.83
2017-07-11T06:25:41.037Z,31.50
2017-07-11T06:28:07.723Z,30.87
2017-07-11T06:30:34.392Z,28.00
2017-07-11T06:33:01.068Z,27.00
2017-07-11T06:35:27.812Z,26.67
2017-07-11T06:37:54.484Z,27.00
2017-07-11T06:40:21.175Z,27.17
2017-07-11T06:42:47.853Z,27.47
2017-07-11T06:45:14.553Z,28.87
2017-07-11T06:47:41.249Z,27.77
2017-07-11T06:50:07.952Z,28.60
2017-07-11T06:52:34.624Z,28.60
2017-07-11T06:55:01.356Z,29.50
2017-07-11T06:57:28.037Z,25.90
2017-07-11T06:59:54.706Z,27.43
2017-07-11T07:02:21.410Z,26.10
2017-07-11T07:04:48.086Z,25.60
2017-07-11T07:07:14.788Z,25.40
2017-07-11T07:09:41.460Z,25.93
2017-07-11T07:12:08.165Z,26.10
2017-07-11T07:14:34.841Z,24.87
2017-07-11T07:17:01.535Z,25.57
2017-07-11T07:19:28.208Z,26.50
2017-07-11T07:21:54.913Z,25.27
2017-07-11T07:24:21.595Z,28.77
2017-07-11T07:26:49.784Z,27.60
2017-07-11T07:29:16.472Z,28.30
2017-07-11T07:31:43.173Z,25.77
2017-07-11T07:34:09.850Z,27.97
2017-07-11T07:36:36.545Z,27.70
2017-07-11T07:39:03.228Z,26.67
2017-07-11T07:41:29.932Z,30.33
2017-07-11T07:43:56.605Z,28.80
2017-07-11T07:46:23.313Z,28.73
2017-07-11T07:48:49.992Z,28.47
2017-07-11T07:51:16.685Z,29.83
2017-07-11T07:53:43.364Z,30.80
2017-07-11T07:56:10.060Z,27.63
2017-07-11T07:58:36.735Z,28.20
2017-07-11T08:01:03.432Z,31.10
2017-07-11T08:03:30.103Z,27.67
2017-07-11T08:05:56.805Z,28.70
2017-07-11T08:08:23.483Z,27.43
2017-07-11T08:10:50.183Z,27.10
2017-07-11T08:13:16.858Z,27.47
2017-07-11T08:15:43.546Z,29.07
2017-07-11T08:18:10.233Z,28.07
2017-07-11T08:20:36.904Z,28.83
2017-07-11T08:23:03.575Z,26.43
2017-07-11T08:25:30.315Z,26.43
2017-07-11T08:27:56.948Z,25.60
2017-07-11T08:30:23.632Z,24.60
2017-07-11T08:32:50.332Z,22.13
2017-07-11T08:35:17.017Z,20.13
2017-07-11T08:37:43.729Z,18.63
2017-07-11T08:40:10.407Z,18.10
2017-07-11T08:42:37.108Z,15.80
2017-07-11T08:45:03.787Z,15.53
2017-07-11T08:47:30.484Z,14.93
2017-07-11T08:49:57.161Z,17.20
2017-07-11T08:52:23.857Z,17.17
2017-07-11T08:54:50.540Z,17.43
2017-07-11T08:57:17.241Z,17.37
2017-07-11T08:59:43.917Z,17.57
2017-07-11T09:02:10.620Z,18.67
2017-07-11T09:04:37.299Z,17.10
2017-07-11T09:07:03.996Z,19.47
2017-07-11T09:09:30.676Z,23.10
2017-07-11T09:11:57.536Z,21.87
2017-07-11T09:14:24.217Z,22.33
2017-07-11T09:16:50.913Z,19.23
2017-07-11T09:19:17.591Z,20.10
2017-07-11T09:21:44.306Z,22.30
2017-07-11T09:24:10.981Z,21.77
2017-07-11T09:26:37.653Z,21.00
2017-07-11T09:29:04.329Z,19.13
2017-07-11T09:31:31.005Z,20.60
2017-07-11T09:33:57.685Z,16.67
2017-07-11T09:36:24.369Z,17.27
2017-07-11T09:38:51.059Z,17.77
2017-07-11T09:41:17.737Z,19.73
2017-07-11T09:43:44.421Z,19.17
2017-07-11T09:46:11.109Z,17.17
2017-07-11T09:48:37.936Z,16.97
2017-07-11T09:51:04.615Z,15.13
2017-07-11T09:53:31.300Z,17.70
2017-07-11T09:55:57.975Z,18.00
2017-07-11T09:58:24.676Z,18.07
2017-07-11T10:00:51.364Z,18.20
2017-07-11T10:03:18.057Z,18.73
2017-07-11T10:05:44.746Z,18.57
2017-07-11T10:08:11.443Z,18.63
2017-07-11T10:10:38.149Z,18.70
2017-07-11T10:13:04.889Z,23.50
2017-07-11T10:15:31.569Z,24.57
2017-07-11T10:17:58.482Z,21.97
2017-07-11T10:20:25.166Z,23.50
2017-07-11T10:22:51.860Z,23.93
2017-07-11T10:25:18.546Z,27.43
2017-07-11T10:27:45.253Z,26.47
2017-07-11T10:30:11.933Z,26.53
2017-07-11T10:32:38.640Z,27.40
2017-07-11T10:35:05.316Z,29.80
2017-07-11T10:37:31.993Z,31.27
2017-07-11T10:39:58.694Z,32.93
2017-07-11T10:42:25.529Z,35.93
2017-07-11T10:44:52.209Z,35.77
2017-07-11T10:47:18.916Z,33.20
2017-07-11T10:49:45.590Z,34.77
2017-07-11T10:52:12.388Z,35.20
2017-07-11T10:54:39.099Z,32.47
2017-07-11T10:57:06.001Z,34.30
2017-07-11T10:59:32.716Z,35.97
2017-07-11T11:01:59.489Z,33.33
2017-07-11T11:04:26.192Z,33.93
2017-07-11T11:06:53.800Z,33.63
2017-07-11T11:09:20.683Z,33.77
2017-07-11T11:11:47.363Z,31.57
2017-07-11T11:14:14.089Z,31.10
2017-07-11T11:16:40.778Z,29.27
2017-07-11T11:19:07.479Z,29.43
2017-07-11T11:21:34.192Z,29.13
2017-07-11T11:24:00.932Z,31.07
2017-07-11T11:26:27.604Z,30.67
2017-07-11T11:28:54.305Z,30.53
2017-07-11T11:31:20.978Z,32.00
2017-07-11T11:33:47.701Z,31.77
2017-07-11T11:36:14.393Z,30.20
2017-07-11T11:38:41.092Z,33.23
2017-07-11T11:41:07.778Z,32.27
2017-07-11T11:43:34.541Z,35.23
2017-07-11T11:46:01.300Z,32.47
2017-07-11T11:48:28.169Z,32.17
2017-07-11T11:50:54.891Z,34.40
2017-07-11T11:53:21.672Z,36.20
2017-07-11T11:55:48.365Z,35.23
2017-07-11T11:58:15.033Z,35.50
2017-07-11T12:00:41.741Z,32.63
2017-07-11T12:03:08.468Z,35.70
2017-07-11T12:05:35.177Z,35.57
2017-07-11T12:08:01.856Z,35.37
2017-07-11T12:10:28.555Z,36.37
2017-07-11T12:12:55.239Z,36.83
2017-07-11T12:15:21.961Z,36.43
2017-07-11T12:17:48.692Z,37.00
2017-07-11T12:20:15.406Z,35.97
2017-07-11T12:22:42.366Z,34.87
2017-07-11T12:25:09.069Z,35.63
2017-07-11T12:27:36.460Z,34.43
2017-07-11T12:30:03.161Z,34.10
2017-07-11T12:32:29.863Z,33.13
2017-07-11T12:34:57.506Z,33.00
2017-07-11T12:37:24.199Z,33.40
2017-07-11T12:39:50.921Z,31.13
2017-07-11T12:42:17.889Z,30.27
2017-07-11T12:44:44.624Z,29.73
2017-07-11T12:47:11.497Z,26.87
2017-07-11T12:49:38.292Z,27.53
2017-07-11T12:52:05.122Z,29.27
2017-07-11T12:54:31.841Z,29.10
2017-07-11T12:56:58.568Z,28.23
2017-07-11T12:59:25.370Z,29.53
2017-07-11T13:01:52.066Z,31.37
2017-07-11T13:04:18.934Z,28.87
2017-07-11T13:06:45.649Z,28.63
2017-07-11T13:09:12.335Z,28.97
2017-07-11T13:11:39.189Z,28.17
2017-07-11T13:14:06.005Z,29.90
2017-07-11T13:16:32.688Z,26.53
2017-07-11T13:19:00.453Z,25.73
2017-07-11T13:21:27.406Z,26.20
2017-07-11T13:23:54.206Z,25.87
2017-07-11T13:26:21.028Z,27.37
2017-07-11T13:28:47.780Z,25.90
2017-07-11T13:31:14.693Z,25.77
2017-07-11T13:33:42.402Z,25.90
2017-07-11T13:36:09.131Z,24.60
2017-07-11T13:38:35.825Z,26.70
2017-07-11T13:41:03.436Z,25.63
2017-07-11T13:43:30.132Z,23.00
2017-07-11T13:45:56.890Z,25.10
2017-07-11T13:48:23.686Z,27.53
2017-07-11T13:50:50.399Z,25.67
2017-07-11T13:53:18.527Z,26.87
2017-07-11T13:55:45.511Z,25.73
2017-07-11T13:58:12.217Z,23.73
2017-07-11T14:00:39.054Z,24.10
2017-07-11T14:03:05.729Z,23.37
2017-07-11T14:05:32.496Z,22.77
2017-07-11T14:07:59.169Z,21.20
2017-07-11T14:10:26.082Z,20.67
2017-07-11T14:12:53.026Z,21.10
2017-07-11T14:15:19.732Z,24.60
2017-07-11T14:17:46.487Z,22.63
2017-07-11T14:20:13.178Z,21.60
2017-07-11T14:22:39.920Z,21.77
2017-07-11T14:25:06.773Z,20.10
2017-07-11T14:27:33.459Z,21.50
2017-07-11T14:30:00.279Z,20.60
2017-07-11T14:32:26.975Z,19.83
2017-07-11T14:34:53.891Z,19.37
2017-07-11T14:37:20.596Z,19.47
2017-07-11T14:39:47.558Z,19.90
2017-07-11T14:42:14.910Z,18.70
2017-07-11T14:44:41.660Z,18.90
2017-07-11T14:47:08.813Z,20.20
2017-07-11T14:49:35.513Z,19.50
2017-07-11T14:52:03.369Z,19.13
2017-07-11T14:54:30.110Z,20.10
2017-07-11T14:56:56.997Z,20.70
2017-07-11T14:59:23.788Z,19.97
2017-07-11T15:01:50.675Z,19.13
2017-07-11T15:04:17.416Z,19.00
2017-07-11T15:06:44.370Z,20.97
2017-07-11T15:09:11.056Z,18.53
2017-07-11T15:11:38.106Z,18.83
2017-07-11T15:14:04.784Z,19.00
2017-07-11T15:16:32.659Z,17.53
2017-07-11T15:18:59.441Z,17.80
2017-07-11T15:21:26.156Z,18.30
2017-07-11T15:23:53.017Z,17.17
2017-07-11T15:26:20.157Z,17.77
2017-07-11T15:28:46.997Z,15.57
2017-07-11T15:31:13.866Z,14.77
2017-07-11T15:33:40.569Z,15.37
2017-07-11T15:36:07.247Z,14.80
2017-07-11T15:38:34.062Z,13.53
2017-07-11T15:41:00.745Z,13.83
2017-07-11T15:43:27.998Z,14.67
2017-07-11T15:45:55.832Z,13.97
2017-07-11T15:48:22.569Z,12.20
2017-07-11T15:50:49.597Z,11.87
2017-07-11T15:53:16.329Z,11.37
2017-07-11T15:55:43.312Z,12.33
2017-07-11T15:58:10.021Z,11.17
2017-07-11T16:00:37.425Z,11.53
2017-07-11T16:03:05.482Z,11.37
2017-07-11T16:05:33.040Z,11.97
2017-07-11T16:08:01.090Z,11.33
2017-07-11T16:10:27.922Z,10.87
2017-07-11T16:12:55.601Z,11.63
2017-07-11T16:15:22.524Z,10.60
2017-07-11T16:17:49.433Z,10.23
2017-07-11T16:20:16.148Z,10.47
2017-07-11T16:22:43.072Z,9.60
2017-07-11T16:25:09.784Z,10.23
2017-07-11T16:27:38.713Z,9.50
2017-07-11T16:30:05.429Z,10.07
2017-07-11T16:32:32.117Z,10.10
2017-07-11T16:35:00.925Z,9.97
2017-07-11T16:37:27.662Z,10.70
2017-07-11T16:39:54.500Z,9.13
2017-07-11T16:42:21.173Z,9.93
2017-07-11T16:44:50.330Z,9.80
2017-07-11T16:47:17.188Z,10.07
2017-07-11T16:49:44.219Z,9.60
2017-07-11T16:52:10.893Z,9.83
2017-07-11T16:54:37.558Z,7.97
2017-07-11T16:57:04.238Z,7.40
2017-07-11T16:59:30.924Z,8.70
2017-07-11T17:01:58.096Z,8.87
2017-07-11T17:04:25.008Z,7.10
2017-07-11T17:06:51.672Z,7.63
2017-07-11T17:09:20.013Z,7.80
2017-07-11T17:11:47.075Z,7.00
2017-07-11T17:14:13.800Z,7.10
2017-07-11T17:16:40.529Z,7.60
2017-07-11T17:19:07.217Z,8.07
2017-07-11T17:21:34.701Z,8.50
2017-07-11T17:24:01.992Z,7.37
2017-07-11T17:26:28.665Z,7.22
2017-07-11T17:28:55.345Z,7.43
2017-07-11T17:31:22.366Z,6.35
2017-07-11T17:33:49.116Z,7.37
2017-07-11T17:36:15.903Z,6.62
2017-07-11T17:38:42.604Z,7.50
2017-07-11T17:41:09.465Z,7.80
2017-07-11T17:43:36.303Z,7.28
2017-07-11T17:46:02.978Z,7.70
2017-07-11T17:48:29.805Z,7.72
2017-07-11T17:50:57.323Z,8.80
2017-07-11T17:53:24.062Z,8.15
2017-07-11T17:55:50.732Z,8.38
2017-07-11T17:58:17.645Z,7.60
2017-07-11T18:00:44.325Z,7.80
2017-07-11T18:03:13.021Z,7.37
2017-07-11T18:05:39.699Z,7.55
2017-07-11T18:08:07.284Z,7.93
2017-07-11T18:10:34.090Z,8.40
2017-07-11T18:13:00.969Z,8.55
2017-07-11T18:15:27.727Z,8.43
2017-07-11T18:17:55.405Z,7.97
2017-07-11T18:20:22.132Z,7.55
2017-07-11T18:22:49.179Z,8.20
2017-07-11T18:25:15.845Z,7.62
2017-07-11T18:27:42.522Z,7.80
2017-07-11T18:30:09.245Z,8.75
2017-07-11T18:32:35.943Z,7.95
2017-07-11T18:35:02.763Z,9.00
2017-07-11T18:37:29.435Z,8.10
2017-07-11T18:39:57.334Z,9.15
2017-07-11T18:42:24.029Z,8.75
2017-07-11T18:44:50.759Z,8.90
2017-07-11T18:47:17.400Z,8.02
2017-07-11T18:49:44.077Z,8.75
2017-07-11T18:52:10.752Z,8.38
2017-07-11T18:54:37.456Z,10.57
2017-07-11T18:57:04.147Z,9.00
2017-07-11T18:59:30.851Z,9.95
2017-07-11T19:01:57.523Z,9.65
2017-07-11T19:04:24.197Z,8.48
2017-07-11T19:06:50.867Z,9.13
2017-07-11T19:09:17.531Z,8.98
2017-07-11T19:11:44.216Z,9.35
2017-07-11T19:14:10.890Z,11.15
2017-07-11T19:16:37.553Z,8.95
2017-07-11T19:19:04.235Z,10.00
2017-07-11T19:21:31.788Z,9.98
2017-07-11T19:23:58.513Z,10.95
2017-07-11T19:26:25.213Z,15.48
2017-07-11T19:28:51.897Z,11.00
2017-07-11T19:31:18.608Z,10.85
2017-07-11T19:33:45.321Z,10.98
2017-07-11T19:36:12.103Z,10.98
2017-07-11T19:38:38.809Z,11.35
2017-07-11T19:41:05.533Z,12.23
2017-07-11T19:43:33.582Z,11.98
2017-07-11T19:46:00.292Z,10.13
2017-07-11T19:48:26.995Z,11.30
2017-07-11T19:50:53.704Z,14.38
2017-07-11T19:53:20.392Z,11.88
2017-07-11T19:55:47.091Z,11.52
2017-07-11T19:58:13.802Z,16.87
2017-07-11T20:00:40.499Z,10.98
2017-07-11T20:03:07.721Z,11.45
2017-07-11T20:05:34.420Z,9.95
2017-07-11T20:08:01.095Z,10.82
2017-07-11T20:10:27.797Z,12.00
2017-07-11T20:12:54.465Z,11.07
2017-07-11T20:15:21.146Z,11.23
2017-07-11T20:17:47.832Z,11.52
2017-07-11T20:20:14.512Z,12.77
2017-07-11T20:22:41.179Z,13.82
2017-07-11T20:25:07.861Z,11.88
2017-07-11T20:27:34.562Z,12.25
2017-07-11T20:30:05.089Z,13.38
2017-07-11T20:32:31.818Z,12.75
2017-07-11T20:34:58.508Z,13.77
2017-07-11T20:37:25.209Z,11.98
2017-07-11T20:40:00.717Z,17.48
2017-07-11T20:42:27.418Z,12.75
2017-07-11T20:44:54.113Z,13.70
2017-07-11T20:47:20.818Z,13.52
2017-07-11T20:49:47.508Z,13.40
2017-07-11T20:52:14.211Z,13.43
2017-07-11T20:54:40.897Z,13.32
2017-07-11T20:57:07.598Z,15.55
2017-07-11T20:59:34.276Z,14.93
2017-07-11T21:02:00.985Z,13.60
2017-07-11T21:04:27.665Z,14.43
2017-07-11T21:06:54.363Z,13.20
2017-07-11T21:09:21.038Z,16.83
2017-07-11T21:11:47.737Z,20.05
2017-07-11T21:14:14.414Z,30.98
2017-07-11T21:16:41.113Z,46.78
2017-07-11T21:19:07.791Z,60.60
2017-07-11T21:21:34.496Z,59.97
2017-07-11T21:24:01.175Z,55.08
2017-07-11T21:26:27.877Z,51.50
2017-07-11T21:28:54.557Z,32.90
2017-07-11T21:31:21.274Z,25.62
2017-07-11T21:33:47.949Z,31.10
2017-07-11T21:36:14.621Z,19.02
2017-07-11T21:38:41.309Z,21.12
2017-07-11T21:41:07.988Z,29.90
2017-07-11T21:43:34.667Z,27.55
2017-07-11T21:46:01.345Z,27.83
2017-07-11T21:48:28.020Z,76.15
2017-07-11T21:50:54.740Z,58.20
2017-07-11T21:53:21.428Z,36.92
2017-07-11T21:55:48.118Z,27.55
2017-07-11T21:58:14.825Z,20.00
2017-07-11T22:00:41.501Z,15.15
2017-07-11T22:03:08.201Z,15.13
2017-07-11T22:05:34.872Z,13.95
2017-07-11T22:08:01.574Z,14.98
2017-07-11T22:10:28.254Z,42.70
2017-07-11T22:12:54.953Z,39.17
2017-07-11T22:15:21.627Z,29.00
2017-07-11T22:17:48.349Z,30.52
2017-07-11T22:20:15.025Z,25.58
2017-07-11T22:22:42.303Z,21.55
2017-07-11T22:25:08.990Z,21.00
2017-07-11T22:27:35.697Z,20.60
2017-07-11T22:30:02.372Z,15.93
2017-07-11T22:32:29.072Z,13.60
2017-07-11T22:34:55.749Z,16.05
2017-07-11T22:37:22.448Z,17.30
2017-07-11T22:39:49.121Z,14.55
2017-07-11T22:42:15.826Z,11.90
2017-07-11T22:44:42.694Z,14.60
2017-07-11T22:47:09.389Z,13.70
2017-07-11T22:49:36.079Z,11.70
2017-07-11T22:52:02.753Z,13.48
2017-07-11T22:54:29.450Z,12.13
2017-07-11T22:56:56.132Z,12.30
2017-07-11T22:59:22.807Z,11.82
2017-07-11T23:01:49.498Z,11.10
2017-07-11T23:04:16.161Z,9.65
2017-07-11T23:06:42.838Z,10.70
2017-07-11T23:09:09.512Z,10.05
2017-07-11T23:11:36.186Z,9.50
2017-07-11T23:14:02.860Z,10.60
2017-07-11T23:16:29.540Z,9.60
2017-07-11T23:18:56.572Z,10.07
2017-07-11T23:21:23.238Z,9.15
2017-07-11T23:23:49.935Z,9.20
2017-07-11T23:26:16.608Z,10.15
2017-07-11T23:28:43.287Z,9.48
2017-07-11T23:31:09.954Z,8.75
2017-07-11T23:33:36.662Z,10.45
2017-07-11T23:36:03.336Z,9.65
2017-07-11T23:38:30.032Z,9.07
2017-07-11T23:40:56.693Z,9.45
2017-07-11T23:43:23.388Z,9.45
2017-07-11T23:45:50.059Z,9.75
2017-07-11T23:48:16.755Z,9.23
2017-07-11T23:50:43.428Z,9.43
2017-07-11T23:53:10.131Z,10.50
2017-07-11T23:55:36.801Z,9.63
2017-07-11T23:58:03.596Z,9.52
